Time;durP1;ratioP1;P1;durP2;ratioP2;P2;SDS_P1;SDS_P2;PMS_P1;PMS_P2;Temp;Humidity;BMP_temperature;BMP_pressure;BME280_temperature;BME280_humidity;BME280_pressure;Samples;Min_cycle;Max_cycle;Signal;HPM_P1;HPM_P2
2021/09/09 00:01:43;;;;;;;15.63;10.43;;;;;;;13.68;100.00;101008.69;5053972;28;20199;-69
2021/09/09 00:04:08;;;;;;;12.40;10.03;;;;;;;13.68;100.00;101008.69;5053850;28;20183;-69
2021/09/09 00:06:33;;;;;;;13.07;10.97;;;;;;;13.70;100.00;101010.31;5052631;28;20199;-69
2021/09/09 00:08:58;;;;;;;14.13;10.90;;;;;;;13.71;100.00;101005.81;5053675;28;20175;-69
2021/09/09 00:11:24;;;;;;;14.13;11.50;;;;;;;13.71;100.00;101008.50;5054154;28;20255;-69
2021/09/09 00:13:49;;;;;;;16.37;11.40;;;;;;;13.67;100.00;101004.28;5036092;28;20175;-69
2021/09/09 00:16:14;;;;;;;19.17;10.70;;;;;;;13.58;100.00;101004.88;5052318;28;20186;-70
2021/09/09 00:18:40;;;;;;;16.10;10.13;;;;;;;13.53;100.00;100994.44;5053569;28;20664;-69
2021/09/09 00:21:05;;;;;;;13.80;9.83;;;;;;;13.49;100.00;100997.41;5035624;28;20183;-69
2021/09/09 00:23:31;;;;;;;18.10;10.07;;;;;;;13.37;100.00;100991.84;5053428;28;20542;-69
2021/09/09 00:25:56;;;;;;;14.77;10.30;;;;;;;13.30;100.00;100993.19;5053534;28;20171;-69
2021/09/09 00:28:21;;;;;;;14.13;10.03;;;;;;;13.22;100.00;100997.28;5053730;28;20195;-69
2021/09/09 00:30:47;;;;;;;15.23;10.60;;;;;;;13.17;100.00;100997.56;5052315;28;20190;-69
2021/09/09 00:33:12;;;;;;;17.93;10.97;;;;;;;13.13;100.00;100996.00;5052697;28;20251;-69
2021/09/09 00:35:38;;;;;;;16.40;10.17;;;;;;;13.10;100.00;100988.16;5052948;28;20178;-69
2021/09/09 00:38:04;;;;;;;17.70;11.17;;;;;;;13.12;100.00;100994.28;5052256;28;20192;-69
2021/09/09 00:40:30;;;;;;;13.30;10.27;;;;;;;13.13;100.00;100993.31;5052516;28;20179;-69
2021/09/09 00:42:55;;;;;;;14.27;10.50;;;;;;;13.14;100.00;100992.38;5054055;28;20208;-69
2021/09/09 00:45:20;;;;;;;15.43;9.33;;;;;;;13.09;100.00;100992.66;5053315;28;20251;-69
2021/09/09 00:47:46;;;;;;;10.07;8.60;;;;;;;13.06;100.00;100986.63;5053144;28;20202;-69
2021/09/09 00:50:11;;;;;;;11.57;9.37;;;;;;;13.06;100.00;100986.63;5053406;28;20183;-69
2021/09/09 00:52:39;;;;;;;11.90;9.47;;;;;;;13.04;100.00;100988.53;5035460;28;20174;-69
2021/09/09 00:55:05;;;;;;;15.13;11.07;;;;;;;13.05;100.00;100982.22;5034845;28;20175;-69
2021/09/09 00:57:30;;;;;;;15.53;11.87;;;;;;;13.01;100.00;100991.41;5051755;28;20202;-69
2021/09/09 00:59:57;;;;;;;17.20;12.00;;;;;;;12.89;100.00;100984.94;5051792;28;20230;-69
2021/09/09 01:02:22;;;;;;;19.13;11.87;;;;;;;12.78;100.00;100985.59;5053184;28;20673;-69
2021/09/09 01:04:49;;;;;;;16.37;10.47;;;;;;;12.74;100.00;100983.19;5052968;28;20229;-69
2021/09/09 01:07:14;;;;;;;14.63;10.07;;;;;;;12.65;100.00;100986.44;5052961;28;20274;-68
2021/09/09 01:09:40;;;;;;;19.30;12.27;;;;;;;12.62;100.00;100982.09;5035024;28;20283;-68
2021/09/09 01:12:05;;;;;;;14.47;10.43;;;;;;;12.62;100.00;100981.22;5052863;28;20656;-70
2021/09/09 01:14:30;;;;;;;15.03;10.93;;;;;;;12.61;100.00;100982.19;5053066;28;20219;-68
2021/09/09 01:16:56;;;;;;;15.83;11.20;;;;;;;12.62;100.00;100982.09;5055272;28;20210;-69
2021/09/09 01:19:21;;;;;;;13.00;10.80;;;;;;;12.68;100.00;100978.22;5039155;28;20209;-69
2021/09/09 01:21:46;;;;;;;14.60;10.80;;;;;;;12.70;100.00;100981.66;5053007;28;20673;-69
2021/09/09 01:24:13;;;;;;;12.63;10.07;;;;;;;12.72;100.00;100980.59;5052817;28;20186;-69
2021/09/09 01:27:00;;;;;;;13.17;10.70;;;;;;;12.72;100.00;100988.66;5051564;28;20669;-69
2021/09/09 01:29:31;;;;;;;14.83;10.17;;;;;;;12.70;100.00;100987.88;5034955;28;20550;-68
2021/09/09 01:31:57;;;;;;;12.90;10.50;;;;;;;12.71;100.00;100978.03;5034910;28;20168;-69
2021/09/09 01:34:23;;;;;;;13.77;10.80;;;;;;;12.71;100.00;100989.59;5052643;28;20179;-69
2021/09/09 01:36:50;;;;;;;17.80;11.20;;;;;;;12.70;100.00;100979.84;5034837;28;20191;-69
2021/09/09 01:39:16;;;;;;;15.10;10.53;;;;;;;12.70;100.00;100982.53;5052808;28;20167;-68
2021/09/09 01:41:41;;;;;;;18.27;10.87;;;;;;;12.69;100.00;100982.63;5051293;28;20203;-68
2021/09/09 01:44:07;;;;;;;12.27;10.60;;;;;;;12.69;100.00;100979.94;5051678;28;20191;-68
2021/09/09 01:46:32;;;;;;;12.90;10.60;;;;;;;12.71;100.00;100973.53;5034785;28;20199;-68
2021/09/09 01:48:58;;;;;;;13.63;10.37;;;;;;;12.68;100.00;100979.06;5034958;28;20176;-68
2021/09/09 01:51:25;;;;;;;15.07;10.80;;;;;;;12.60;100.00;100975.97;5051302;28;20188;-69
2021/09/09 01:53:51;;;;;;;16.53;10.67;;;;;;;12.57;100.00;100977.97;5052378;28;20187;-68
2021/09/09 01:56:16;;;;;;;13.03;11.03;;;;;;;12.52;100.00;100981.78;5052440;28;20183;-68
2021/09/09 01:58:42;;;;;;;16.83;11.23;;;;;;;12.54;100.00;100979.00;5052678;28;20206;-68
2021/09/09 02:01:08;;;;;;;15.40;10.60;;;;;;;12.51;100.00;100979.19;5052952;28;20642;-69
2021/09/09 02:03:34;;;;;;;12.43;10.07;;;;;;;12.51;100.00;100977.38;5034724;28;20248;-69
2021/09/09 02:05:59;;;;;;;13.40;10.67;;;;;;;12.52;100.00;100978.22;5054070;28;20171;-68
2021/09/09 02:08:24;;;;;;;17.33;10.77;;;;;;;12.54;100.00;100973.66;5056089;28;20561;-69
2021/09/09 02:10:49;;;;;;;13.47;10.43;;;;;;;12.55;100.00;100970.03;5056212;28;20168;-69
2021/09/09 02:13:15;;;;;;;14.87;11.03;;;;;;;12.50;100.00;100966.75;5054961;28;20208;-69
2021/09/09 02:15:41;;;;;;;13.47;10.90;;;;;;;12.48;100.00;100969.53;5054777;28;20176;-69
2021/09/09 02:18:06;;;;;;;13.20;10.10;;;;;;;12.45;100.00;100972.38;5055705;28;20352;-69
2021/09/09 02:20:32;;;;;;;14.40;11.13;;;;;;;12.36;100.00;100967.56;5055952;28;20626;-68
2021/09/09 02:22:57;;;;;;;15.07;10.37;;;;;;;12.31;100.00;100966.97;5055804;28;20257;-69
2021/09/09 02:25:22;;;;;;;15.27;10.97;;;;;;;12.25;100.00;100967.31;5055783;28;20641;-69
2021/09/09 02:27:47;;;;;;;16.40;11.87;;;;;;;12.20;100.00;100966.72;5055828;28;20200;-69
2021/09/09 02:30:13;;;;;;;12.47;10.50;;;;;;;12.19;100.00;100962.31;5054809;28;20180;-69
2021/09/09 02:32:38;;;;;;;14.50;11.27;;;;;;;12.24;100.00;100959.38;5054954;28;20202;-68
2021/09/09 02:35:04;;;;;;;18.70;11.20;;;;;;;12.25;100.00;100956.59;5055675;28;20175;-68
2021/09/09 02:37:29;;;;;;;14.53;11.80;;;;;;;12.29;100.00;100954.63;5054647;28;20225;-69
2021/09/09 02:39:55;;;;;;;12.07;10.17;;;;;;;12.23;100.00;100953.16;5055850;28;20175;-69
2021/09/09 02:42:20;;;;;;;12.10;10.37;;;;;;;12.25;100.00;100955.75;5056006;28;20206;-68
2021/09/09 02:44:46;;;;;;;12.87;10.63;;;;;;;12.17;100.00;100946.34;5055628;28;20175;-69
2021/09/09 02:47:11;;;;;;;16.37;11.63;;;;;;;12.06;100.00;100947.91;5055280;28;20206;-69
2021/09/09 02:49:36;;;;;;;15.00;12.30;;;;;;;12.10;100.00;100944.97;5055767;28;20180;-68
2021/09/09 02:52:02;;;;;;;14.93;11.80;;;;;;;12.08;100.00;100938.00;5055539;28;20174;-69
2021/09/09 02:54:27;;;;;;;16.63;12.47;;;;;;;11.99;100.00;100943.88;5054206;28;20194;-70
2021/09/09 02:56:52;;;;;;;16.10;12.33;;;;;;;11.93;100.00;100949.59;5055727;28;20588;-69
2021/09/09 02:59:18;;;;;;;19.67;12.57;;;;;;;11.90;100.00;100947.94;5055230;28;20176;-69
2021/09/09 03:01:43;;;;;;;15.60;12.50;;;;;;;11.85;100.00;100947.31;5053805;28;20231;-69
2021/09/09 03:04:08;;;;;;;15.80;11.83;;;;;;;11.81;100.00;100945.75;5055300;28;20171;-68
2021/09/09 03:06:34;;;;;;;14.47;11.93;;;;;;;11.72;100.00;100941.78;5055277;28;20246;-68
2021/09/09 03:08:59;;;;;;;14.40;11.30;;;;;;;11.64;100.00;100929.78;5054961;28;20211;-69
2021/09/09 03:11:25;;;;;;;14.83;11.23;;;;;;;11.55;100.00;100928.50;5053838;28;20175;-69
2021/09/09 03:13:50;;;;;;;12.27;10.97;;;;;;;11.47;100.00;100928.88;5054996;28;20229;-68
2021/09/09 03:16:15;;;;;;;17.17;11.10;;;;;;;11.45;100.00;100927.25;5054918;28;20258;-68
2021/09/09 03:18:41;;;;;;;13.40;11.13;;;;;;;11.59;100.00;100924.69;5054364;28;20233;-69
2021/09/09 03:21:06;;;;;;;15.67;12.03;;;;;;;11.89;100.00;100928.38;5037064;28;20172;-68
2021/09/09 03:23:31;;;;;;;19.43;12.73;;;;;;;11.96;100.00;100928.88;5036705;28;20199;-68
2021/09/09 03:25:57;;;;;;;13.67;11.97;;;;;;;12.00;100.00;100927.75;5053985;28;20171;-67
2021/09/09 03:28:22;;;;;;;21.03;13.77;;;;;;;12.10;100.00;100926.25;5054973;28;20233;-69
2021/09/09 03:30:47;;;;;;;16.93;12.07;;;;;;;12.07;100.00;100925.56;5054726;28;20707;-68
2021/09/09 03:33:13;;;;;;;17.53;15.27;;;;;;;12.06;100.00;100922.03;5054594;28;20168;-68
2021/09/09 03:35:38;;;;;;;17.37;13.67;;;;;;;12.07;100.00;100915.72;5054909;28;20175;-68
2021/09/09 03:38:04;;;;;;;18.93;13.60;;;;;;;12.12;100.00;100915.47;5055563;28;20245;-68
2021/09/09 03:40:29;;;;;;;15.80;13.47;;;;;;;12.11;100.00;100911.94;5057263;28;20207;-68
2021/09/09 03:42:54;;;;;;;16.27;13.77;;;;;;;12.18;100.00;100913.28;5055514;28;20206;-68
2021/09/09 03:45:19;;;;;;;18.23;13.47;;;;;;;12.13;100.00;100909.16;5054719;28;20183;-69
2021/09/09 03:47:45;;;;;;;17.37;13.90;;;;;;;12.17;100.00;100918.72;5054418;28;20195;-69
2021/09/09 03:50:10;;;;;;;15.17;12.40;;;;;;;12.14;100.00;100905.53;5053454;28;20180;-69
2021/09/09 03:52:36;;;;;;;13.27;11.83;;;;;;;12.13;100.00;100899.31;5054070;28;20250;-70
2021/09/09 03:55:01;;;;;;;16.00;12.17;;;;;;;12.17;100.00;100905.34;5053163;28;20176;-70
2021/09/09 03:57:26;;;;;;;16.60;13.87;;;;;;;12.24;100.00;100903.16;5054246;28;20253;-70
2021/09/09 03:59:52;;;;;;;23.07;15.17;;;;;;;12.34;100.00;100899.03;5053988;28;20176;-69
2021/09/09 04:02:17;;;;;;;20.23;15.50;;;;;;;12.41;100.00;100897.72;5054049;28;20269;-69
2021/09/09 04:04:43;;;;;;;25.20;17.27;;;;;;;12.51;100.00;100890.84;5054325;28;20262;-69
2021/09/09 04:07:08;;;;;;;22.87;17.13;;;;;;;12.57;100.00;100887.78;5052699;28;20557;-69
2021/09/09 04:09:36;;;;;;;18.20;14.37;;;;;;;12.48;100.00;100901.72;5053363;28;20187;-69
2021/09/09 04:12:02;;;;;;;18.20;14.40;;;;;;;12.42;100.00;100892.25;5054218;28;20655;-69
2021/09/09 04:14:27;;;;;;;21.23;16.23;;;;;;;12.43;100.00;100891.31;5054356;28;20262;-69
2021/09/09 04:16:52;;;;;;;27.33;17.93;;;;;;;12.49;100.00;100890.06;5053651;28;20210;-68
2021/09/09 04:19:19;;;;;;;22.10;18.40;;;;;;;12.62;100.00;100891.03;5053891;28;20167;-69
2021/09/09 04:21:44;;;;;;;22.27;17.23;;;;;;;12.69;100.00;100887.06;5053463;28;20175;-69
2021/09/09 04:24:10;;;;;;;20.57;16.60;;;;;;;12.75;100.00;100892.03;5052437;28;20225;-68
2021/09/09 04:26:35;;;;;;;18.40;14.00;;;;;;;12.72;100.00;100886.03;5054268;28;20199;-69
2021/09/09 04:29:00;;;;;;;23.37;14.13;;;;;;;12.76;100.00;100880.38;5052820;28;20182;-68
2021/09/09 04:31:26;;;;;;;18.83;14.97;;;;;;;12.72;100.00;100881.53;5053713;28;20187;-68
2021/09/09 04:33:51;;;;;;;24.97;16.17;;;;;;;12.74;100.00;100878.75;5053470;28;20175;-68
2021/09/09 04:36:16;;;;;;;18.30;15.40;;;;;;;12.74;100.00;100876.06;5053944;28;20248;-68
2021/09/09 04:38:41;;;;;;;15.07;11.87;;;;;;;12.62;100.00;100874.97;5053648;28;20168;-68
2021/09/09 04:41:07;;;;;;;13.13;11.33;;;;;;;12.60;100.00;100879.56;5053492;28;20183;-68
2021/09/09 04:43:34;;;;;;;16.70;14.07;;;;;;;12.58;100.00;100868.09;5053560;28;20204;-69
2021/09/09 04:45:59;;;;;;;19.03;15.53;;;;;;;12.64;100.00;100873.09;5053740;28;20175;-68
2021/09/09 04:48:24;;;;;;;18.80;15.30;;;;;;;12.72;100.00;100865.47;5053347;28;20195;-69
2021/09/09 04:50:50;;;;;;;22.17;17.27;;;;;;;12.83;100.00;100871.00;5053207;28;20576;-69
2021/09/09 04:53:15;;;;;;;20.67;17.23;;;;;;;12.99;100.00;100860.19;5053200;28;20186;-69
2021/09/09 04:55:40;;;;;;;20.47;15.77;;;;;;;13.04;100.00;100859.94;5053377;28;20179;-69
2021/09/09 04:58:06;;;;;;;21.10;15.23;;;;;;;13.01;100.00;100854.75;5053588;28;20707;-68
2021/09/09 05:00:31;;;;;;;19.20;14.63;;;;;;;13.03;100.00;100853.72;5054171;28;20179;-70
2021/09/09 05:02:56;;;;;;;16.50;13.40;;;;;;;13.13;100.00;100856.66;5053191;28;20195;-68
2021/09/09 05:05:22;;;;;;;16.43;13.30;;;;;;;13.18;100.00;100861.75;5052342;28;20182;-69
2021/09/09 05:07:47;;;;;;;18.33;12.60;;;;;;;13.22;100.00;100853.44;5053202;28;20228;-69
2021/09/09 05:10:12;;;;;;;18.57;12.70;;;;;;;13.30;100.00;100853.78;5053239;28;20649;-68
2021/09/09 05:12:38;;;;;;;21.00;15.67;;;;;;;13.38;100.00;100853.28;5052808;28;20709;-67
2021/09/09 05:15:04;;;;;;;12.07;9.73;;;;;;;13.43;100.00;100851.22;5051718;28;20179;-68
2021/09/09 05:17:29;;;;;;;11.10;8.47;;;;;;;13.49;100.00;100856.16;5046971;23;20239;-71
2021/09/09 05:19:54;;;;;;;8.33;6.87;;;;;;;13.48;100.00;100845.53;5032818;28;20172;-70
2021/09/09 05:22:20;;;;;;;5.47;4.97;;;;;;;13.36;100.00;100844.50;5014806;28;20669;-71
2021/09/09 05:24:45;;;;;;;6.47;5.43;;;;;;;13.25;99.80;100842.50;5014820;28;20177;-70
2021/09/09 05:27:10;;;;;;;5.77;5.17;;;;;;;13.12;99.77;100842.41;5015087;28;20196;-71
2021/09/09 05:29:36;;;;;;;6.47;5.60;;;;;;;13.07;100.00;100840.97;5032758;28;20172;-70
2021/09/09 05:32:01;;;;;;;6.53;5.83;;;;;;;13.07;100.00;100843.66;5015171;28;20249;-70
2021/09/09 05:34:26;;;;;;;11.67;9.40;;;;;;;13.11;100.00;100838.00;5015274;28;20173;-71
2021/09/09 05:36:51;;;;;;;8.07;7.23;;;;;;;13.15;100.00;100841.34;5014713;28;20180;-71
2021/09/09 05:39:17;;;;;;;8.90;6.87;;;;;;;13.23;100.00;100835.53;5014948;28;20187;-70
2021/09/09 05:41:42;;;;;;;9.73;7.00;;;;;;;13.32;100.00;100841.16;5035393;28;20213;-69
2021/09/09 05:44:07;;;;;;;11.47;7.80;;;;;;;13.44;100.00;100831.47;5018906;28;20662;-69
2021/09/09 05:46:33;;;;;;;8.93;7.47;;;;;;;13.52;100.00;100837.19;5036342;28;20286;-70
2021/09/09 05:48:58;;;;;;;11.70;8.77;;;;;;;13.59;100.00;100837.66;5036115;28;20192;-68
2021/09/09 05:51:23;;;;;;;12.80;7.80;;;;;;;13.64;100.00;100844.44;5036274;28;20172;-65
2021/09/09 05:53:49;;;;;;;8.50;6.80;;;;;;;13.72;100.00;100842.09;5036716;28;20168;-66
2021/09/09 05:56:14;;;;;;;12.13;7.20;;;;;;;13.82;100.00;100837.00;5018713;28;20180;-65
2021/09/09 05:58:40;;;;;;;12.47;9.13;;;;;;;13.89;100.00;100834.78;5018240;28;20199;-65
2021/09/09 06:01:06;;;;;;;13.83;10.00;;;;;;;13.90;100.00;100832.00;5036552;28;20657;-73
2021/09/09 06:03:31;;;;;;;16.83;12.03;;;;;;;13.94;100.00;100827.28;5021958;28;20192;-76
2021/09/09 06:06:03;;;;;;;20.87;14.53;;;;;;;14.01;100.00;100829.44;5035673;28;20173;-76
2021/09/09 06:08:32;;;;;;;19.03;13.90;;;;;;;14.14;100.00;100825.94;5035315;28;20196;-76
2021/09/09 06:10:57;;;;;;;17.80;13.13;;;;;;;14.18;100.00;100819.41;5035275;28;20168;-77
2021/09/09 06:13:23;;;;;;;23.17;14.67;;;;;;;14.29;100.00;100824.91;5018806;28;20172;-76
2021/09/09 06:15:48;;;;;;;33.50;16.27;;;;;;;14.37;100.00;100830.59;5036682;28;20653;-77
2021/09/09 06:18:13;;;;;;;29.90;14.07;;;;;;;14.45;100.00;100830.09;5035662;28;20577;-77
2021/09/09 06:20:39;;;;;;;24.10;14.60;;;;;;;14.48;100.00;100822.69;5035900;28;20176;-77
2021/09/09 06:23:04;;;;;;;21.30;14.90;;;;;;;14.58;100.00;100830.97;5019565;28;20250;-77
2021/09/09 06:25:29;;;;;;;20.53;14.50;;;;;;;14.67;100.00;100828.50;5037062;28;20642;-77
2021/09/09 06:27:54;;;;;;;23.90;13.97;;;;;;;14.74;100.00;100822.69;5035949;28;20243;-77
2021/09/09 06:30:20;;;;;;;24.53;14.20;;;;;;;14.80;99.17;100815.06;5035706;28;20184;-78
2021/09/09 06:32:45;;;;;;;19.90;13.80;;;;;;;14.91;98.90;100825.94;5037773;28;20168;-78
2021/09/09 06:35:10;;;;;;;24.17;14.07;;;;;;;14.97;98.36;100828.19;5037728;28;20704;-78
2021/09/09 06:37:36;;;;;;;19.43;12.80;;;;;;;15.02;98.32;100835.91;5040222;28;20188;-78
2021/09/09 06:40:01;;;;;;;24.53;15.00;;;;;;;15.16;98.25;100833.09;5043647;28;20169;-77
2021/09/09 06:42:28;;;;;;;25.20;13.90;;;;;;;15.26;97.52;100834.16;5039392;28;20199;-78
2021/09/09 06:44:53;;;;;;;34.33;13.67;;;;;;;15.37;96.65;100837.88;5022600;28;20226;-78
2021/09/09 06:47:19;;;;;;;21.23;13.57;;;;;;;15.44;96.95;100833.78;5037792;28;20196;-77
2021/09/09 06:49:44;;;;;;;32.07;13.30;;;;;;;15.59;95.89;100835.34;5037692;28;20253;-78
2021/09/09 06:52:09;;;;;;;26.87;13.77;;;;;;;15.60;97.00;100829.00;5020160;28;20226;-78
2021/09/09 06:54:34;;;;;;;35.40;13.63;;;;;;;15.81;95.23;100838.19;5037091;28;20562;-78
2021/09/09 06:57:00;;;;;;;21.03;13.30;;;;;;;15.92;94.26;100827.47;5037807;28;20211;-78
2021/09/09 06:59:25;;;;;;;19.77;13.03;;;;;;;16.04;92.92;100831.09;5037498;28;20191;-78
2021/09/09 07:01:50;;;;;;;17.13;12.73;;;;;;;16.15;92.94;100825.75;5037399;28;20172;-78
2021/09/09 07:04:16;;;;;;;19.70;12.80;;;;;;;16.33;92.23;100820.75;5037010;28;20184;-78
2021/09/09 07:06:41;;;;;;;21.87;12.97;;;;;;;16.42;91.23;100825.47;5036184;28;20226;-78
2021/09/09 07:09:06;;;;;;;16.63;12.43;;;;;;;16.57;90.52;100818.88;5037016;28;20187;-77
2021/09/09 07:11:31;;;;;;;16.53;12.07;;;;;;;16.76;90.11;100812.94;5037249;28;20530;-78
2021/09/09 07:13:57;;;;;;;19.83;12.70;;;;;;;16.81;89.57;100813.44;5037365;28;20176;-78
2021/09/09 07:16:22;;;;;;;13.50;11.10;;;;;;;17.02;89.16;100826.16;5037221;28;20176;-77
2021/09/09 07:18:47;;;;;;;16.40;11.10;;;;;;;17.18;89.18;100819.44;5036736;28;20204;-77
2021/09/09 07:21:13;;;;;;;16.47;11.47;;;;;;;17.28;87.15;100824.09;5035412;28;20184;-77
2021/09/09 07:23:38;;;;;;;14.90;10.97;;;;;;;17.37;86.63;100816.09;5035992;28;20674;-77
2021/09/09 07:26:04;;;;;;;15.93;10.67;;;;;;;17.45;87.19;100813.63;5036251;28;20179;-77
2021/09/09 07:28:29;;;;;;;16.60;11.40;;;;;;;17.61;86.92;100821.34;5019259;28;20192;-77
2021/09/09 07:30:54;;;;;;;19.30;10.93;;;;;;;17.67;87.22;100810.06;5036366;28;20176;-78
2021/09/09 07:33:19;;;;;;;14.97;10.33;;;;;;;17.78;85.94;100812.72;5039656;28;20539;-77
2021/09/09 07:35:45;;;;;;;16.90;11.60;;;;;;;17.89;85.74;100816.38;5038558;28;20179;-77
2021/09/09 07:38:10;;;;;;;13.50;9.80;;;;;;;18.00;85.08;100813.63;5036492;28;20196;-77
2021/09/09 07:40:35;;;;;;;15.30;10.03;;;;;;;18.01;84.20;100812.66;5037468;28;20174;-77
2021/09/09 07:43:01;;;;;;;14.03;10.13;;;;;;;18.11;84.31;100809.03;5035813;28;20196;-77
2021/09/09 07:45:28;;;;;;;13.03;9.97;;;;;;;18.29;83.73;100817.44;5034309;28;20172;-77
2021/09/09 07:47:53;;;;;;;15.03;10.63;;;;;;;18.36;82.73;100818.59;5017442;28;20192;-77
2021/09/09 07:50:18;;;;;;;12.77;9.67;;;;;;;18.48;82.63;100811.28;5033587;28;20183;-77
2021/09/09 07:52:44;;;;;;;13.50;9.87;;;;;;;18.58;82.64;100811.34;5017468;28;20177;-77
2021/09/09 07:55:10;;;;;;;12.50;10.10;;;;;;;18.70;81.61;100804.91;5017465;28;20187;-77
2021/09/09 07:57:36;;;;;;;14.63;9.87;;;;;;;18.81;81.59;100804.81;5034401;28;20199;-77
2021/09/09 08:00:01;;;;;;;16.57;10.47;;;;;;;18.94;81.20;100802.75;5018256;28;20172;-77
2021/09/09 08:02:26;;;;;;;24.80;11.07;;;;;;;19.01;81.99;100803.94;5034526;28;20202;-77
2021/09/09 08:04:52;;;;;;;23.50;9.90;;;;;;;19.14;81.12;100803.69;5035855;28;20199;-78
2021/09/09 08:07:17;;;;;;;12.40;9.27;;;;;;;19.27;75.01;100798.88;5035434;28;20199;-77
2021/09/09 08:09:42;;;;;;;12.07;8.43;;;;;;;19.39;72.21;100802.34;5035631;28;20251;-75
2021/09/09 08:12:08;;;;;;;15.70;8.50;;;;;;;19.48;72.55;100795.25;5036147;28;20176;-77
2021/09/09 08:14:33;;;;;;;14.23;8.50;;;;;;;19.63;71.64;100793.88;5036248;28;20183;-77
2021/09/09 08:16:59;;;;;;;10.50;8.17;;;;;;;19.61;72.28;100794.00;5018494;28;20701;-77
2021/09/09 08:19:24;;;;;;;18.03;8.53;;;;;;;19.67;72.49;100795.31;5043740;28;20168;-77
2021/09/09 08:21:49;;;;;;;19.40;8.10;;;;;;;19.74;71.16;100787.50;5051548;28;20211;-77
2021/09/09 08:24:15;;;;;;;11.03;7.77;;;;;;;19.68;70.94;100787.03;5017092;28;20172;-77
2021/09/09 08:26:40;;;;;;;14.90;7.37;;;;;;;19.64;70.21;100785.59;5052326;28;20176;-77
2021/09/09 08:29:05;;;;;;;17.33;7.93;;;;;;;19.73;70.42;100786.63;5030927;28;20183;-77
2021/09/09 08:31:31;;;;;;;18.93;7.87;;;;;;;19.85;68.10;100790.06;5023928;28;20176;-77
2021/09/09 08:33:56;;;;;;;11.57;7.40;;;;;;;20.17;67.94;100785.22;5023125;28;20222;-78
2021/09/09 08:36:22;;;;;;;13.93;8.03;;;;;;;20.27;66.44;100783.34;5023644;28;20609;-78
2021/09/09 08:38:49;;;;;;;14.00;8.13;;;;;;;20.33;66.70;100779.19;5039226;28;20709;-77
2021/09/09 08:41:14;;;;;;;9.87;7.20;;;;;;;20.51;66.63;100782.06;5022344;28;20164;-78
2021/09/09 08:43:39;;;;;;;11.57;7.90;;;;;;;20.62;68.38;100790.00;5040034;28;20206;-77
2021/09/09 08:46:06;;;;;;;11.63;7.67;;;;;;;20.68;66.14;100781.28;5035014;28;20184;-77
2021/09/09 08:48:32;;;;;;;14.00;8.23;;;;;;;20.71;66.08;100785.56;5036064;28;20180;-77
2021/09/09 08:50:58;;;;;;;12.60;7.33;;;;;;;20.82;64.81;100782.69;5055967;28;20232;-77
2021/09/09 08:53:23;;;;;;;11.70;7.07;;;;;;;20.78;64.86;100787.53;5055188;28;20252;-76
2021/09/09 08:55:49;;;;;;;10.80;7.10;;;;;;;21.00;64.78;100786.31;5035474;28;20203;-77
2021/09/09 08:58:15;;;;;;;15.93;7.70;;;;;;;20.80;64.69;100788.22;5016581;28;20613;-77
2021/09/09 09:01:11;;;;;;;10.43;6.83;;;;;;;20.99;62.66;100781.88;5035355;28;20176;-77
2021/09/09 09:03:57;;;;;;;10.50;6.13;;;;;;;21.07;62.71;100783.84;5017041;28;20219;-77
2021/09/09 09:06:22;;;;;;;12.00;7.03;;;;;;;20.96;62.35;100781.34;5034014;28;20183;-77
2021/09/09 09:08:58;;;;;;;13.17;6.20;;;;;;;21.15;62.04;100786.66;5033459;28;20192;-76
2021/09/09 09:11:25;;;;;;;8.57;6.60;;;;;;;20.99;61.72;100789.16;5015554;28;20176;-76
2021/09/09 09:13:50;;;;;;;12.23;7.73;;;;;;;21.26;61.49;100778.38;5032881;28;20191;-76
2021/09/09 09:16:16;;;;;;;9.43;6.83;;;;;;;21.32;61.89;100774.19;5014786;28;20176;-76
2021/09/09 09:18:42;;;;;;;13.67;6.70;;;;;;;21.36;60.95;100771.00;5032617;28;20604;-76
2021/09/09 09:21:08;;;;;;;9.97;7.23;;;;;;;21.36;59.26;100771.00;5033519;28;20263;-76
2021/09/09 09:23:33;;;;;;;10.97;6.90;;;;;;;21.38;61.42;100773.56;5015387;28;20203;-76
2021/09/09 09:26:02;;;;;;;11.80;6.23;;;;;;;21.44;61.02;100770.25;4998967;28;20176;-76
2021/09/09 09:28:47;;;;;;;9.33;6.73;;;;;;;21.53;59.28;100764.75;5015641;28;20196;-77
2021/09/09 09:31:20;;;;;;;11.60;7.03;;;;;;;21.51;59.22;100766.75;5015705;28;20182;-77
2021/09/09 09:33:51;;;;;;;12.60;7.13;;;;;;;21.74;59.35;100760.91;5015163;28;20603;-77
2021/09/09 09:36:23;;;;;;;11.97;6.53;;;;;;;21.83;58.99;100759.97;5015720;28;20268;-77
2021/09/09 09:38:51;;;;;;;16.40;8.17;;;;;;;21.73;59.98;100751.03;5032877;28;20196;-77
2021/09/09 09:41:19;;;;;;;13.87;7.37;;;;;;;21.52;61.37;100754.91;5016676;28;20211;-77
2021/09/09 09:43:56;;;;;;;11.03;6.77;;;;;;;21.69;61.36;100758.66;5000649;28;20215;-78
2021/09/09 09:46:36;;;;;;;11.07;7.40;;;;;;;22.09;60.87;100746.47;5034998;28;20167;-78
2021/09/09 09:49:24;;;;;;;14.83;7.20;;;;;;;22.35;60.59;100743.78;5036908;28;20262;-77
2021/09/09 09:51:52;;;;;;;15.27;6.60;;;;;;;22.53;59.33;100741.84;5019680;28;20156;-78
2021/09/09 09:54:19;;;;;;;12.43;6.30;;;;;;;22.71;58.44;100744.53;5027437;28;20211;-78
2021/09/09 09:56:45;;;;;;;11.10;5.93;;;;;;;22.48;57.59;100736.06;5019034;28;20183;-76
2021/09/09 09:59:11;;;;;;;12.90;6.23;;;;;;;22.38;56.96;100738.03;5017275;28;20191;-77
2021/09/09 10:01:36;;;;;;;10.97;5.53;;;;;;;22.22;55.86;100738.75;5033381;28;20180;-77
2021/09/09 10:04:04;;;;;;;8.03;4.87;;;;;;;22.03;54.05;100739.81;5016537;28;20242;-77
2021/09/09 10:06:31;;;;;;;8.03;5.07;;;;;;;22.24;52.30;100735.88;5034732;28;20173;-78
2021/09/09 10:08:56;;;;;;;9.83;5.70;;;;;;;22.43;52.73;100731.09;5034881;28;20198;-78
2021/09/09 10:11:22;;;;;;;11.77;5.40;;;;;;;22.80;52.81;100732.66;5017331;28;20176;-78
2021/09/09 10:13:47;;;;;;;7.60;5.50;;;;;;;22.96;52.53;100729.19;5033038;28;20196;-77
2021/09/09 10:16:16;;;;;;;18.00;5.40;;;;;;;22.79;52.01;100728.25;5014810;28;20179;-77
2021/09/09 10:18:42;;;;;;;11.33;5.20;;;;;;;22.89;52.48;100722.69;5032504;28;20208;-77
2021/09/09 10:21:07;;;;;;;7.53;5.43;;;;;;;22.83;53.38;100728.81;5015801;28;20169;-78
2021/09/09 10:23:32;;;;;;;6.17;5.20;;;;;;;23.00;53.53;100722.41;5035090;28;20283;-77
2021/09/09 10:25:58;;;;;;;12.93;6.00;;;;;;;23.32;53.18;100732.56;5033809;28;20230;-77
2021/09/09 10:28:41;;;;;;;12.43;5.67;;;;;;;23.63;53.26;100727.38;5036284;28;20188;-77
2021/09/09 10:31:07;;;;;;;7.13;5.00;;;;;;;23.55;52.49;100724.63;5035815;28;20224;-77
2021/09/09 10:33:33;;;;;;;9.27;5.37;;;;;;;23.74;52.66;100724.31;5019255;28;20764;-78
2021/09/09 10:35:59;;;;;;;11.07;5.10;;;;;;;23.47;51.20;100724.59;5036573;28;20303;-78
2021/09/09 10:38:32;;;;;;;8.77;4.50;;;;;;;23.64;50.32;100726.34;5018855;28;20220;-77
2021/09/09 10:40:59;;;;;;;12.03;5.03;;;;;;;23.67;50.65;100728.75;5019364;28;20184;-77
2021/09/09 10:43:24;;;;;;;5.33;4.57;;;;;;;23.59;50.72;100720.56;5036801;28;20192;-77
2021/09/09 10:45:59;;;;;;;8.63;5.43;;;;;;;24.12;51.12;100705.56;5037166;28;20179;-78
2021/09/09 10:48:25;;;;;;;7.13;4.93;;;;;;;24.32;49.51;100712.41;5036966;28;20188;-78
2021/09/09 10:51:10;;;;;;;8.73;4.90;;;;;;;24.51;48.96;100712.03;5019395;28;20646;-78
2021/09/09 10:53:40;;;;;;;7.23;4.83;;;;;;;24.26;48.38;100713.09;5019120;28;20172;-78
2021/09/09 10:56:11;;;;;;;6.87;4.83;;;;;;;24.10;48.18;100707.63;5018761;28;20168;-78
2021/09/09 10:58:37;;;;;;;6.40;4.53;;;;;;;25.46;46.37;100703.78;5018366;28;20685;-77
2021/09/09 11:01:05;;;;;;;9.30;4.77;;;;;;;25.59;45.66;100703.19;5018214;28;20172;-77
2021/09/09 11:03:37;;;;;;;5.50;4.33;;;;;;;26.61;44.42;100699.91;5036386;28;20557;-77
2021/09/09 11:06:04;;;;;;;6.23;4.60;;;;;;;28.30;42.82;100694.06;5018846;28;20176;-77